createdAt,value
2017-12-16T00:00:08.111Z,993.47
2017-12-16T00:01:08.719Z,993.50
2017-12-16T00:02:09.317Z,993.51
2017-12-16T00:03:09.913Z,993.56
2017-12-16T00:04:10.515Z,993.51
2017-12-16T00:05:11.101Z,993.52
2017-12-16T00:06:11.705Z,993.52
2017-12-16T00:07:12.310Z,993.52
2017-12-16T00:08:12.905Z,993.52
2017-12-16T00:09:13.509Z,993.52
2017-12-16T00:10:14.125Z,993.55
2017-12-16T00:11:14.725Z,993.57
2017-12-16T00:12:15.319Z,993.58
2017-12-16T00:13:15.920Z,993.56
2017-12-16T00:14:16.516Z,993.58
2017-12-16T00:15:17.110Z,993.59
2017-12-16T00:16:17.706Z,993.59
2017-12-16T00:17:18.305Z,993.60
2017-12-16T00:18:18.904Z,993.61
2017-12-16T00:19:19.490Z,993.56
2017-12-16T00:20:20.089Z,993.59
2017-12-16T00:21:20.688Z,993.61
2017-12-16T00:22:21.284Z,993.57
2017-12-16T00:23:21.883Z,993.58
2017-12-16T00:24:22.499Z,993.62
2017-12-16T00:25:23.108Z,993.62
2017-12-16T00:26:23.715Z,993.63
2017-12-16T00:27:24.318Z,993.62
2017-12-16T00:28:24.923Z,993.62
2017-12-16T00:29:25.534Z,993.62
2017-12-16T00:30:26.122Z,993.63
2017-12-16T00:31:26.719Z,993.65
2017-12-16T00:32:27.319Z,993.64
2017-12-16T00:33:27.919Z,993.64
2017-12-16T00:34:28.520Z,993.69
2017-12-16T00:35:29.129Z,993.67
2017-12-16T00:36:29.738Z,993.66
2017-12-16T00:37:30.341Z,993.68
2017-12-16T00:38:30.942Z,993.72
2017-12-16T00:39:31.534Z,993.74
2017-12-16T00:40:32.141Z,993.74
2017-12-16T00:41:32.738Z,993.81
2017-12-16T00:42:33.349Z,993.81
2017-12-16T00:43:33.940Z,993.81
2017-12-16T00:44:34.539Z,993.84
2017-12-16T00:45:35.139Z,993.84
2017-12-16T00:46:35.728Z,993.87
2017-12-16T00:47:36.324Z,993.89
2017-12-16T00:48:36.928Z,993.86
2017-12-16T00:49:37.525Z,993.88
2017-12-16T00:50:38.132Z,993.90
2017-12-16T00:51:38.720Z,993.90
2017-12-16T00:52:39.332Z,993.91
2017-12-16T00:53:39.928Z,993.87
2017-12-16T00:54:40.516Z,993.93
2017-12-16T00:55:41.157Z,993.93
2017-12-16T00:56:41.714Z,993.96
2017-12-16T00:57:42.332Z,993.96
2017-12-16T00:58:42.932Z,993.93
2017-12-16T00:59:43.531Z,993.90
2017-12-16T01:00:44.152Z,993.95
2017-12-16T01:01:44.757Z,993.93
2017-12-16T01:02:45.357Z,993.96
2017-12-16T01:03:45.953Z,993.98
2017-12-16T01:04:46.561Z,994.06
2017-12-16T01:05:47.165Z,994.07
2017-12-16T01:06:47.753Z,994.08
2017-12-16T01:07:48.359Z,994.13
2017-12-16T01:08:48.967Z,994.16
2017-12-16T01:09:49.574Z,994.19
2017-12-16T01:10:50.189Z,994.18
2017-12-16T01:11:50.782Z,994.25
2017-12-16T01:12:51.387Z,994.24
2017-12-16T01:13:51.996Z,994.32
2017-12-16T01:14:52.607Z,994.27
2017-12-16T01:15:53.208Z,994.24
2017-12-16T01:16:53.805Z,994.30
2017-12-16T01:17:54.405Z,994.32
2017-12-16T01:18:54.999Z,994.33
2017-12-16T01:19:55.605Z,994.32
2017-12-16T01:20:56.207Z,994.33
2017-12-16T01:21:56.813Z,994.38
2017-12-16T01:22:57.407Z,994.36
2017-12-16T01:23:58.006Z,994.36
2017-12-16T01:24:58.594Z,994.39
2017-12-16T01:25:59.188Z,994.41
2017-12-16T01:26:59.779Z,994.38
2017-12-16T01:28:00.376Z,994.43
2017-12-16T01:29:00.975Z,994.47
2017-12-16T01:30:01.564Z,994.47
2017-12-16T01:31:02.164Z,994.51
2017-12-16T01:32:02.756Z,994.53
2017-12-16T01:33:03.345Z,994.55
2017-12-16T01:34:03.948Z,994.57
2017-12-16T01:35:04.558Z,994.54
2017-12-16T01:36:05.150Z,994.56
2017-12-16T01:37:05.753Z,994.60
2017-12-16T01:38:06.340Z,994.59
2017-12-16T01:39:06.936Z,994.59
2017-12-16T01:40:07.549Z,994.57
2017-12-16T01:41:08.158Z,994.64
2017-12-16T01:42:08.762Z,994.61
2017-12-16T01:43:09.360Z,994.64
2017-12-16T01:44:09.963Z,994.64
2017-12-16T01:45:10.570Z,994.61
2017-12-16T01:46:11.173Z,994.65
2017-12-16T01:47:11.777Z,994.67
2017-12-16T01:48:12.368Z,994.69
2017-12-16T01:49:12.958Z,994.69
2017-12-16T01:50:13.555Z,994.70
2017-12-16T01:51:14.156Z,994.71
2017-12-16T01:52:14.752Z,994.72
2017-12-16T01:53:15.355Z,994.71
2017-12-16T01:54:15.951Z,994.77
2017-12-16T01:55:16.554Z,994.79
2017-12-16T01:56:17.156Z,994.79
2017-12-16T01:57:17.765Z,994.82
2017-12-16T01:58:18.352Z,994.82
2017-12-16T01:59:18.953Z,994.82
2017-12-16T02:00:19.555Z,994.88
2017-12-16T02:01:20.144Z,994.89
2017-12-16T02:02:20.748Z,994.88
2017-12-16T02:03:21.336Z,994.86
2017-12-16T02:04:21.935Z,994.91
2017-12-16T02:05:22.527Z,994.88
2017-12-16T02:06:23.120Z,994.93
2017-12-16T02:07:23.723Z,994.97
2017-12-16T02:08:24.340Z,994.92
2017-12-16T02:09:24.939Z,994.95
2017-12-16T02:10:25.534Z,994.96
2017-12-16T02:11:26.128Z,994.98
2017-12-16T02:12:26.735Z,995.02
2017-12-16T02:13:27.340Z,995.02
2017-12-16T02:14:27.954Z,995.03
2017-12-16T02:15:28.559Z,995.08
2017-12-16T02:16:29.152Z,995.04
2017-12-16T02:17:29.750Z,995.06
2017-12-16T02:18:30.358Z,995.08
2017-12-16T02:19:30.965Z,995.08
2017-12-16T02:20:31.570Z,995.08
2017-12-16T02:21:32.168Z,995.10
2017-12-16T02:22:32.769Z,995.10
2017-12-16T02:23:33.378Z,995.14
2017-12-16T02:24:33.965Z,995.10
2017-12-16T02:25:34.565Z,995.12
2017-12-16T02:26:35.162Z,995.15
2017-12-16T02:27:35.757Z,995.11
2017-12-16T02:28:36.359Z,995.13
2017-12-16T02:29:36.968Z,995.17
2017-12-16T02:30:37.582Z,995.20
2017-12-16T02:31:38.187Z,995.14
2017-12-16T02:32:38.782Z,995.13
2017-12-16T02:33:39.376Z,995.12
2017-12-16T02:34:39.971Z,995.16
2017-12-16T02:35:40.573Z,995.17
2017-12-16T02:36:41.179Z,995.17
2017-12-16T02:37:41.785Z,995.23
2017-12-16T02:38:42.380Z,995.18
2017-12-16T02:39:42.974Z,995.24
2017-12-16T02:40:43.565Z,995.27
2017-12-16T02:41:44.171Z,995.26
2017-12-16T02:42:44.764Z,995.25
2017-12-16T02:43:45.360Z,995.30
2017-12-16T02:44:45.965Z,995.28
2017-12-16T02:45:46.561Z,995.25
2017-12-16T02:46:47.162Z,995.29
2017-12-16T02:47:47.753Z,995.31
2017-12-16T02:48:48.342Z,995.32
2017-12-16T02:49:48.950Z,995.29
2017-12-16T02:50:49.575Z,995.30
2017-12-16T02:51:50.160Z,995.29
2017-12-16T02:52:50.749Z,995.32
2017-12-16T02:53:51.347Z,995.33
2017-12-16T02:54:51.942Z,995.36
2017-12-16T02:55:52.536Z,995.33
2017-12-16T02:56:53.127Z,995.35
2017-12-16T02:57:53.716Z,995.35
2017-12-16T02:58:54.312Z,995.35
2017-12-16T02:59:54.900Z,995.37
2017-12-16T03:00:55.509Z,995.38
2017-12-16T03:01:56.110Z,995.37
2017-12-16T03:02:56.707Z,995.38
2017-12-16T03:03:57.295Z,995.39
2017-12-16T03:04:57.901Z,995.42
2017-12-16T03:05:58.502Z,995.41
2017-12-16T03:06:59.103Z,995.40
2017-12-16T03:07:59.716Z,995.44
2017-12-16T03:09:00.312Z,995.43
2017-12-16T03:10:00.922Z,995.49
2017-12-16T03:11:01.534Z,995.45
2017-12-16T03:12:02.138Z,995.46
2017-12-16T03:13:02.741Z,995.51
2017-12-16T03:14:03.342Z,995.51
2017-12-16T03:15:03.937Z,995.55
2017-12-16T03:16:04.540Z,995.56
2017-12-16T03:17:05.145Z,995.58
2017-12-16T03:18:05.748Z,995.60
2017-12-16T03:19:06.341Z,995.63
2017-12-16T03:20:06.937Z,995.64
2017-12-16T03:21:07.530Z,995.64
2017-12-16T03:22:08.141Z,995.67
2017-12-16T03:23:08.749Z,995.67
2017-12-16T03:24:09.339Z,995.77
2017-12-16T03:25:09.936Z,995.84
2017-12-16T03:26:10.542Z,995.81
2017-12-16T03:27:11.147Z,995.88
2017-12-16T03:28:11.743Z,995.88
2017-12-16T03:29:12.345Z,995.98
2017-12-16T03:30:13.010Z,995.91
2017-12-16T03:31:13.529Z,995.95
2017-12-16T03:32:14.118Z,995.99
2017-12-16T03:33:14.711Z,995.96
2017-12-16T03:34:15.314Z,995.96
2017-12-16T03:35:15.905Z,996.00
2017-12-16T03:36:16.499Z,995.98
2017-12-16T03:37:17.102Z,995.99
2017-12-16T03:38:17.705Z,996.01
2017-12-16T03:39:18.301Z,995.98
2017-12-16T03:40:18.902Z,995.95
2017-12-16T03:41:19.508Z,995.99
2017-12-16T03:42:20.111Z,995.99
2017-12-16T03:43:20.711Z,996.01
2017-12-16T03:44:21.314Z,996.05
2017-12-16T03:45:21.903Z,996.06
2017-12-16T03:46:22.500Z,996.05
2017-12-16T03:47:23.096Z,996.06
2017-12-16T03:48:23.689Z,996.11
2017-12-16T03:49:24.290Z,996.05
2017-12-16T03:50:24.885Z,996.11
2017-12-16T03:51:25.475Z,996.12
2017-12-16T03:52:26.069Z,996.12
2017-12-16T03:53:26.669Z,996.14
2017-12-16T03:54:27.260Z,996.16
2017-12-16T03:55:27.858Z,996.19
2017-12-16T03:56:28.465Z,996.22
2017-12-16T03:57:29.061Z,996.26
2017-12-16T03:58:29.657Z,996.24
2017-12-16T03:59:30.253Z,996.25
2017-12-16T04:00:30.840Z,996.22
2017-12-16T04:01:31.440Z,996.26
2017-12-16T04:02:32.041Z,996.26
2017-12-16T04:03:32.632Z,996.33
2017-12-16T04:04:33.232Z,996.28
2017-12-16T04:05:33.822Z,996.30
2017-12-16T04:06:34.412Z,996.34
2017-12-16T04:07:35.005Z,996.32
2017-12-16T04:08:35.609Z,996.34
2017-12-16T04:09:36.202Z,996.34
2017-12-16T04:10:36.809Z,996.39
2017-12-16T04:11:37.408Z,996.36
2017-12-16T04:12:38.004Z,996.41
2017-12-16T04:13:38.602Z,996.47
2017-12-16T04:14:39.194Z,996.44
2017-12-16T04:15:39.794Z,996.48
2017-12-16T04:16:40.388Z,996.44
2017-12-16T04:17:40.977Z,996.47
2017-12-16T04:18:41.572Z,996.49
2017-12-16T04:19:42.160Z,996.52
2017-12-16T04:20:42.763Z,996.51
2017-12-16T04:21:43.366Z,996.52
2017-12-16T04:22:43.962Z,996.52
2017-12-16T04:23:44.560Z,996.53
2017-12-16T04:24:45.159Z,996.54
2017-12-16T04:25:45.758Z,996.53
2017-12-16T04:26:46.346Z,996.55
2017-12-16T04:27:46.941Z,996.49
2017-12-16T04:28:47.544Z,996.55
2017-12-16T04:29:48.152Z,996.53
2017-12-16T04:30:48.755Z,996.52
2017-12-16T04:31:49.352Z,996.56
2017-12-16T04:32:49.959Z,996.57
2017-12-16T04:33:50.553Z,996.55
2017-12-16T04:34:51.148Z,996.62
2017-12-16T04:35:51.748Z,996.63
2017-12-16T04:36:52.338Z,996.71
2017-12-16T04:37:52.933Z,996.63
2017-12-16T04:38:53.522Z,996.70
2017-12-16T04:39:54.120Z,996.70
2017-12-16T04:40:54.706Z,996.74
2017-12-16T04:41:55.306Z,996.75
2017-12-16T04:42:55.913Z,996.72
2017-12-16T04:43:56.520Z,996.73
2017-12-16T04:44:57.116Z,996.76
2017-12-16T04:45:57.724Z,996.76
2017-12-16T04:46:58.332Z,996.76
2017-12-16T04:47:58.934Z,996.82
2017-12-16T04:48:59.524Z,996.80
2017-12-16T04:50:00.119Z,996.85
2017-12-16T04:51:00.711Z,996.89
2017-12-16T04:52:01.313Z,996.89
2017-12-16T04:53:01.923Z,996.86
2017-12-16T04:54:02.531Z,996.88
2017-12-16T04:55:03.124Z,996.92
2017-12-16T04:56:03.714Z,996.89
2017-12-16T04:57:04.311Z,996.90
2017-12-16T04:58:04.925Z,996.91
2017-12-16T04:59:05.533Z,996.90
2017-12-16T05:00:06.134Z,996.89
2017-12-16T05:01:06.735Z,996.93
2017-12-16T05:02:07.343Z,996.98
2017-12-16T05:03:07.929Z,996.96
2017-12-16T05:04:08.524Z,997.00
2017-12-16T05:05:09.127Z,997.00
2017-12-16T05:06:09.713Z,997.00
2017-12-16T05:07:10.311Z,997.07
2017-12-16T05:08:10.925Z,997.12
2017-12-16T05:09:11.515Z,997.13
2017-12-16T05:10:12.114Z,997.13
2017-12-16T05:11:12.712Z,997.15
2017-12-16T05:12:13.301Z,997.14
2017-12-16T05:13:13.916Z,997.16
2017-12-16T05:14:14.518Z,997.17
2017-12-16T05:15:15.126Z,997.14
2017-12-16T05:16:15.715Z,997.15
2017-12-16T05:17:16.310Z,997.16
2017-12-16T05:18:16.915Z,997.15
2017-12-16T05:19:17.521Z,997.17
2017-12-16T05:20:18.120Z,997.16
2017-12-16T05:21:18.717Z,997.17
2017-12-16T05:22:19.313Z,997.18
2017-12-16T05:23:19.904Z,997.18
2017-12-16T05:24:20.500Z,997.16
2017-12-16T05:25:21.100Z,997.18
2017-12-16T05:26:21.688Z,997.20
2017-12-16T05:27:22.283Z,997.26
2017-12-16T05:28:22.871Z,997.28
2017-12-16T05:29:23.466Z,997.26
2017-12-16T05:30:24.073Z,997.24
2017-12-16T05:31:24.654Z,997.20
2017-12-16T05:32:25.246Z,997.22
2017-12-16T05:33:25.863Z,997.23
2017-12-16T05:34:26.464Z,997.26
2017-12-16T05:35:27.049Z,997.27
2017-12-16T05:36:27.652Z,997.29
2017-12-16T05:37:28.248Z,997.26
2017-12-16T05:38:28.858Z,997.28
2017-12-16T05:39:29.458Z,997.24
2017-12-16T05:40:30.055Z,997.29
2017-12-16T05:41:30.651Z,997.29
2017-12-16T05:42:31.252Z,997.31
2017-12-16T05:43:31.866Z,997.37
2017-12-16T05:44:32.468Z,997.38
2017-12-16T05:45:33.070Z,997.38
2017-12-16T05:46:33.670Z,997.40
2017-12-16T05:47:34.271Z,997.44
2017-12-16T05:48:34.880Z,997.42
2017-12-16T05:49:35.471Z,997.47
2017-12-16T05:50:36.074Z,997.46
2017-12-16T05:51:36.664Z,997.48
2017-12-16T05:52:37.257Z,997.52
2017-12-16T05:53:37.859Z,997.54
2017-12-16T05:54:38.442Z,997.53
2017-12-16T05:55:39.056Z,997.58
2017-12-16T05:56:39.631Z,997.62
2017-12-16T05:57:40.227Z,997.62
2017-12-16T05:58:40.828Z,997.65
2017-12-16T05:59:41.433Z,997.69
2017-12-16T06:00:42.032Z,997.68
2017-12-16T06:01:42.628Z,997.69
2017-12-16T06:02:43.235Z,997.75
2017-12-16T06:03:43.844Z,997.73
2017-12-16T06:04:44.445Z,997.74
2017-12-16T06:05:45.041Z,997.73
2017-12-16T06:06:45.640Z,997.79
2017-12-16T06:07:46.236Z,997.79
2017-12-16T06:08:46.834Z,997.78
2017-12-16T06:09:47.431Z,997.84
2017-12-16T06:10:48.077Z,997.84
2017-12-16T06:11:48.610Z,997.85
2017-12-16T06:12:49.207Z,997.91
2017-12-16T06:13:49.807Z,997.92
2017-12-16T06:14:50.413Z,997.92
2017-12-16T06:15:51.045Z,997.93
2017-12-16T06:16:51.614Z,997.98
2017-12-16T06:17:52.200Z,998.00
2017-12-16T06:18:52.797Z,997.99
2017-12-16T06:19:53.417Z,998.05
2017-12-16T06:20:53.991Z,998.06
2017-12-16T06:21:54.576Z,998.11
2017-12-16T06:22:55.176Z,998.10
2017-12-16T06:23:55.768Z,998.09
2017-12-16T06:24:56.362Z,998.14
2017-12-16T06:25:56.964Z,998.12
2017-12-16T06:26:57.555Z,998.08
2017-12-16T06:27:58.151Z,998.11
2017-12-16T06:28:58.765Z,998.12
2017-12-16T06:29:59.363Z,998.12
2017-12-16T06:30:59.964Z,998.12
2017-12-16T06:32:00.550Z,998.14
2017-12-16T06:33:01.156Z,998.09
2017-12-16T06:34:01.755Z,998.10
2017-12-16T06:35:02.346Z,998.06
2017-12-16T06:36:02.954Z,998.08
2017-12-16T06:37:03.547Z,998.08
2017-12-16T06:38:04.135Z,998.14
2017-12-16T06:39:04.732Z,998.12
2017-12-16T06:40:05.336Z,998.13
2017-12-16T06:41:05.936Z,998.10
2017-12-16T06:42:06.537Z,998.14
2017-12-16T06:43:07.145Z,998.18
2017-12-16T06:44:07.754Z,998.20
2017-12-16T06:45:08.356Z,998.25
2017-12-16T06:46:08.961Z,998.24
2017-12-16T06:47:09.562Z,998.29
2017-12-16T06:48:10.168Z,998.28
2017-12-16T06:49:10.778Z,998.27
2017-12-16T06:50:11.384Z,998.26
2017-12-16T06:51:11.974Z,998.31
2017-12-16T06:52:12.570Z,998.35
2017-12-16T06:53:13.166Z,998.38
2017-12-16T06:54:13.766Z,998.36
2017-12-16T06:55:14.378Z,998.34
2017-12-16T06:56:14.978Z,998.40
2017-12-16T06:57:15.568Z,998.43
2017-12-16T06:58:16.175Z,998.43
2017-12-16T06:59:16.774Z,998.45
2017-12-16T07:00:17.380Z,998.46
2017-12-16T07:01:17.981Z,998.48
2017-12-16T07:02:18.575Z,998.46
2017-12-16T07:03:19.170Z,998.48
2017-12-16T07:04:19.778Z,998.51
2017-12-16T07:05:20.377Z,998.50
2017-12-16T07:06:20.978Z,998.55
2017-12-16T07:07:21.574Z,998.59
2017-12-16T07:08:22.170Z,998.61
2017-12-16T07:09:22.779Z,998.61
2017-12-16T07:10:23.367Z,998.60
2017-12-16T07:11:23.953Z,998.61
2017-12-16T07:12:24.557Z,998.59
2017-12-16T07:13:25.165Z,998.64
2017-12-16T07:14:25.763Z,998.63
2017-12-16T07:15:26.365Z,998.61
2017-12-16T07:16:26.958Z,998.62
2017-12-16T07:17:27.554Z,998.69
2017-12-16T07:18:28.165Z,998.72
2017-12-16T07:19:28.772Z,998.72
2017-12-16T07:20:29.367Z,998.77
2017-12-16T07:21:29.967Z,998.77
2017-12-16T07:22:30.566Z,998.78
2017-12-16T07:23:31.172Z,998.78
2017-12-16T07:24:31.760Z,998.84
2017-12-16T07:25:32.367Z,998.79
2017-12-16T07:26:32.958Z,998.86
2017-12-16T07:27:33.685Z,998.86
2017-12-16T07:28:34.269Z,998.87
2017-12-16T07:29:34.855Z,998.87
2017-12-16T07:30:35.455Z,998.85
2017-12-16T07:31:36.046Z,998.95
2017-12-16T07:32:36.644Z,998.93
2017-12-16T07:33:37.240Z,998.92
2017-12-16T07:34:37.860Z,998.98
2017-12-16T07:35:38.461Z,999.00
2017-12-16T07:36:39.050Z,999.00
2017-12-16T07:37:39.646Z,999.07
2017-12-16T07:38:40.246Z,999.10
2017-12-16T07:39:40.844Z,999.12
2017-12-16T07:40:41.442Z,999.12
2017-12-16T07:41:42.040Z,999.15
2017-12-16T07:42:42.648Z,999.21
2017-12-16T07:43:43.252Z,999.19
2017-12-16T07:44:43.858Z,999.24
2017-12-16T07:45:44.459Z,999.27
2017-12-16T07:46:45.063Z,999.29
2017-12-16T07:47:45.670Z,999.30
2017-12-16T07:48:46.266Z,999.32
2017-12-16T07:49:46.872Z,999.37
2017-12-16T07:50:47.463Z,999.43
2017-12-16T07:51:48.075Z,999.40
2017-12-16T07:52:48.669Z,999.45
2017-12-16T07:53:49.268Z,999.47
2017-12-16T07:54:49.878Z,999.52
2017-12-16T07:55:50.499Z,999.54
2017-12-16T07:56:51.099Z,999.58
2017-12-16T07:57:51.690Z,999.57
2017-12-16T07:58:52.296Z,999.55
2017-12-16T07:59:52.893Z,999.62
2017-12-16T08:00:53.498Z,999.66
2017-12-16T08:01:54.100Z,999.70
2017-12-16T08:02:54.704Z,999.71
2017-12-16T08:03:55.311Z,999.74
2017-12-16T08:04:55.920Z,999.74
2017-12-16T08:05:56.528Z,999.81
2017-12-16T08:06:57.121Z,999.84
2017-12-16T08:07:57.724Z,999.85
2017-12-16T08:08:58.360Z,999.84
2017-12-16T08:09:58.949Z,999.87
2017-12-16T08:10:59.548Z,999.90
2017-12-16T08:12:00.141Z,999.93
2017-12-16T08:13:00.735Z,999.95
2017-12-16T08:14:01.343Z,999.94
2017-12-16T08:15:01.950Z,999.93
2017-12-16T08:16:02.557Z,999.94
2017-12-16T08:17:03.153Z,999.97
2017-12-16T08:18:03.762Z,999.97
2017-12-16T08:19:04.358Z,999.99
2017-12-16T08:20:04.958Z,999.99
2017-12-16T08:21:05.554Z,999.98
2017-12-16T08:22:06.158Z,1000.01
2017-12-16T08:23:06.767Z,1000.02
2017-12-16T08:24:07.377Z,1000.01
2017-12-16T08:25:07.996Z,1000.09
2017-12-16T08:26:08.593Z,1000.09
2017-12-16T08:27:09.258Z,1000.12
2017-12-16T08:28:09.822Z,1000.12
2017-12-16T08:29:10.428Z,1000.16
2017-12-16T08:30:11.035Z,1000.13
2017-12-16T08:31:11.639Z,1000.12
2017-12-16T08:32:12.243Z,1000.17
2017-12-16T08:33:12.856Z,1000.15
2017-12-16T08:34:13.468Z,1000.17
2017-12-16T08:35:14.074Z,1000.22
2017-12-16T08:36:14.675Z,1000.17
2017-12-16T08:37:15.270Z,1000.22
2017-12-16T08:38:15.861Z,1000.24
2017-12-16T08:39:16.465Z,1000.30
2017-12-16T08:40:17.069Z,1000.29
2017-12-16T08:41:17.683Z,1000.36
2017-12-16T08:42:18.274Z,1000.32
2017-12-16T08:43:18.868Z,1000.35
2017-12-16T08:44:19.462Z,1000.40
2017-12-16T08:45:20.067Z,1000.39
2017-12-16T08:46:20.723Z,1000.40
2017-12-16T08:47:21.322Z,1000.39
2017-12-16T08:48:21.971Z,1000.41
2017-12-16T08:49:22.570Z,1000.39
2017-12-16T08:50:23.173Z,1000.32
2017-12-16T08:51:23.782Z,1000.34
2017-12-16T08:52:24.414Z,1000.36
2017-12-16T08:53:25.022Z,1000.36
2017-12-16T08:54:25.677Z,1000.36
2017-12-16T08:55:26.330Z,1000.36
2017-12-16T08:56:26.998Z,1000.39
2017-12-16T08:57:27.618Z,1000.38
2017-12-16T08:58:28.194Z,1000.39
2017-12-16T08:59:28.807Z,1000.39
2017-12-16T09:00:29.423Z,1000.41
2017-12-16T09:01:30.025Z,1000.41
2017-12-16T09:02:30.635Z,1000.45
2017-12-16T09:03:31.238Z,1000.39
2017-12-16T09:04:31.845Z,1000.46
2017-12-16T09:05:32.456Z,1000.43
2017-12-16T09:06:33.071Z,1000.48
2017-12-16T09:07:33.666Z,1000.46
2017-12-16T09:08:34.264Z,1000.53
2017-12-16T09:09:34.869Z,1000.58
2017-12-16T09:10:35.481Z,1000.52
2017-12-16T09:11:36.078Z,1000.59
2017-12-16T09:12:36.680Z,1000.59
2017-12-16T09:13:37.281Z,1000.62
2017-12-16T09:14:37.899Z,1000.63
2017-12-16T09:15:38.504Z,1000.65
2017-12-16T09:16:39.113Z,1000.65
2017-12-16T09:17:39.724Z,1000.67
2017-12-16T09:18:40.326Z,1000.72
2017-12-16T09:19:40.927Z,1000.76
2017-12-16T09:20:41.546Z,1000.71
2017-12-16T09:21:42.161Z,1000.78
2017-12-16T09:22:42.782Z,1000.76
2017-12-16T09:23:43.397Z,1000.83
2017-12-16T09:24:44.006Z,1000.83
2017-12-16T09:25:44.608Z,1000.86
2017-12-16T09:26:45.227Z,1000.83
2017-12-16T09:27:45.830Z,1000.84
2017-12-16T09:28:46.434Z,1000.86
2017-12-16T09:29:47.056Z,1000.89
2017-12-16T09:30:47.664Z,1000.91
2017-12-16T09:31:48.277Z,1000.91
2017-12-16T09:32:48.900Z,1000.91
2017-12-16T09:33:49.509Z,1000.89
2017-12-16T09:34:50.132Z,1000.94
2017-12-16T09:35:50.739Z,1000.97
2017-12-16T09:36:51.339Z,1000.94
2017-12-16T09:37:51.943Z,1000.99
2017-12-16T09:38:52.546Z,1000.98
2017-12-16T09:39:53.154Z,1001.03
2017-12-16T09:40:53.769Z,1001.05
2017-12-16T09:41:54.368Z,1001.08
2017-12-16T09:42:54.975Z,1001.07
2017-12-16T09:43:55.571Z,1001.08
2017-12-16T09:44:56.179Z,1001.09
2017-12-16T09:45:56.780Z,1001.11
2017-12-16T09:46:57.376Z,1001.12
2017-12-16T09:47:57.977Z,1001.15
2017-12-16T09:48:58.578Z,1001.19
2017-12-16T09:49:59.179Z,1001.22
2017-12-16T09:50:59.795Z,1001.26
2017-12-16T09:52:00.416Z,1001.27
2017-12-16T09:53:01.017Z,1001.29
2017-12-16T09:54:01.617Z,1001.36
2017-12-16T09:55:02.218Z,1001.37
2017-12-16T09:56:02.824Z,1001.41
2017-12-16T09:57:03.433Z,1001.33
2017-12-16T09:58:04.043Z,1001.43
2017-12-16T09:59:04.662Z,1001.46
2017-12-16T10:00:05.282Z,1001.44
2017-12-16T10:01:05.902Z,1001.46
2017-12-16T10:02:06.508Z,1001.45
2017-12-16T10:03:07.115Z,1001.46
2017-12-16T10:04:07.716Z,1001.48
2017-12-16T10:05:08.329Z,1001.47
2017-12-16T10:06:08.921Z,1001.43
2017-12-16T10:07:09.524Z,1001.43
2017-12-16T10:08:10.133Z,1001.44
2017-12-16T10:09:10.735Z,1001.43
2017-12-16T10:10:11.346Z,1001.43
2017-12-16T10:11:11.944Z,1001.33
2017-12-16T10:12:12.550Z,1001.38
2017-12-16T10:13:13.164Z,1001.36
2017-12-16T10:14:13.769Z,1001.40
2017-12-16T10:15:14.381Z,1001.42
2017-12-16T10:16:14.992Z,1001.41
2017-12-16T10:17:15.597Z,1001.41
2017-12-16T10:18:16.202Z,1001.40
2017-12-16T10:19:16.820Z,1001.42
2017-12-16T10:20:17.431Z,1001.43
2017-12-16T10:21:18.044Z,1001.44
2017-12-16T10:22:18.649Z,1001.44
2017-12-16T10:23:19.249Z,1001.47
2017-12-16T10:24:19.857Z,1001.46
2017-12-16T10:25:20.455Z,1001.46
2017-12-16T10:26:21.073Z,1001.54
2017-12-16T10:27:21.683Z,1001.48
2017-12-16T10:28:22.301Z,1001.51
2017-12-16T10:29:22.908Z,1001.51
2017-12-16T10:30:23.507Z,1001.52
2017-12-16T10:31:24.119Z,1001.50
2017-12-16T10:32:24.723Z,1001.52
2017-12-16T10:33:25.323Z,1001.49
2017-12-16T10:34:25.937Z,1001.51
2017-12-16T10:35:26.548Z,1001.52
2017-12-16T10:36:27.159Z,1001.54
2017-12-16T10:37:27.768Z,1001.57
2017-12-16T10:38:28.379Z,1001.58
2017-12-16T10:39:29.003Z,1001.59
2017-12-16T10:40:29.614Z,1001.57
2017-12-16T10:41:30.225Z,1001.59
2017-12-16T10:42:30.853Z,1001.57
2017-12-16T10:43:31.473Z,1001.59
2017-12-16T10:44:32.075Z,1001.61
2017-12-16T10:45:32.704Z,1001.62
2017-12-16T10:46:33.316Z,1001.63
2017-12-16T10:47:33.934Z,1001.60
2017-12-16T10:48:34.546Z,1001.60
2017-12-16T10:49:35.169Z,1001.63
2017-12-16T10:50:35.802Z,1001.60
2017-12-16T10:51:36.401Z,1001.64
2017-12-16T10:52:37.008Z,1001.66
2017-12-16T10:53:37.633Z,1001.62
2017-12-16T10:54:38.235Z,1001.63
2017-12-16T10:55:38.850Z,1001.62
2017-12-16T10:56:39.462Z,1001.62
2017-12-16T10:57:40.072Z,1001.59
2017-12-16T10:58:40.709Z,1001.65
2017-12-16T10:59:41.338Z,1001.67
2017-12-16T11:00:41.950Z,1001.65
2017-12-16T11:01:42.584Z,1001.68
2017-12-16T11:02:43.223Z,1001.68
2017-12-16T11:03:43.856Z,1001.69
2017-12-16T11:04:44.448Z,1001.78
2017-12-16T11:05:45.054Z,1001.72
2017-12-16T11:06:45.667Z,1001.71
2017-12-16T11:07:46.289Z,1001.76
2017-12-16T11:08:46.904Z,1001.71
2017-12-16T11:09:47.516Z,1001.84
2017-12-16T11:10:48.112Z,1001.81
2017-12-16T11:11:48.708Z,1001.77
2017-12-16T11:12:49.318Z,1001.79
2017-12-16T11:13:49.932Z,1001.78
2017-12-16T11:14:50.532Z,1001.83
2017-12-16T11:15:51.137Z,1001.81
2017-12-16T11:16:51.735Z,1001.80
2017-12-16T11:17:52.336Z,1001.81
2017-12-16T11:18:53.940Z,1001.83
2017-12-16T11:19:54.539Z,1001.85
2017-12-16T11:20:55.147Z,1001.81
2017-12-16T11:21:55.750Z,1001.84
2017-12-16T11:22:56.369Z,1001.87
2017-12-16T11:23:56.987Z,1001.82
2017-12-16T11:24:57.587Z,1001.87
2017-12-16T11:25:58.180Z,1001.87
2017-12-16T11:26:58.793Z,1001.88
2017-12-16T11:27:59.391Z,1001.87
2017-12-16T11:28:59.998Z,1001.89
2017-12-16T11:30:00.596Z,1001.89
2017-12-16T11:31:01.212Z,1001.89
2017-12-16T11:32:01.832Z,1001.88
2017-12-16T11:33:02.448Z,1001.89
2017-12-16T11:34:03.059Z,1001.94
2017-12-16T11:35:03.672Z,1001.89
2017-12-16T11:36:04.271Z,1001.92
2017-12-16T11:37:04.887Z,1001.94
2017-12-16T11:38:05.503Z,1001.94
2017-12-16T11:39:06.120Z,1001.96
2017-12-16T11:40:06.718Z,1001.96
2017-12-16T11:41:07.325Z,1001.99
2017-12-16T11:42:07.924Z,1002.02
2017-12-16T11:43:08.531Z,1002.02
2017-12-16T11:44:09.150Z,1001.97
2017-12-16T11:45:09.767Z,1002.07
2017-12-16T11:46:10.388Z,1002.05
2017-12-16T11:47:11.001Z,1002.12
2017-12-16T11:48:11.608Z,1002.07
2017-12-16T11:49:12.220Z,1002.08
2017-12-16T11:50:12.819Z,1002.09
2017-12-16T11:51:13.438Z,1002.13
2017-12-16T11:52:14.041Z,1002.13
2017-12-16T11:53:14.642Z,1002.14
2017-12-16T11:54:15.243Z,1002.16
2017-12-16T11:55:15.855Z,1002.16
2017-12-16T11:56:16.472Z,1002.19
2017-12-16T11:57:17.084Z,1002.13
2017-12-16T11:58:17.707Z,1002.18
2017-12-16T11:59:18.299Z,1002.25
2017-12-16T12:00:18.903Z,1002.26
2017-12-16T12:01:19.510Z,1002.21
2017-12-16T12:02:20.129Z,1002.23
2017-12-16T12:03:20.751Z,1002.19
2017-12-16T12:04:21.348Z,1002.23
2017-12-16T12:05:21.955Z,1002.19
2017-12-16T12:06:22.567Z,1002.18
2017-12-16T12:07:23.173Z,1002.19
2017-12-16T12:08:23.785Z,1002.24
2017-12-16T12:09:24.401Z,1002.27
2017-12-16T12:10:25.014Z,1002.18
2017-12-16T12:11:25.631Z,1002.20
2017-12-16T12:12:26.246Z,1002.17
2017-12-16T12:13:26.856Z,1002.13
2017-12-16T12:14:27.470Z,1002.18
2017-12-16T12:15:28.074Z,1002.20
2017-12-16T12:16:28.698Z,1002.22
2017-12-16T12:17:29.303Z,1002.24
2017-12-16T12:18:29.912Z,1002.17
2017-12-16T12:19:30.520Z,1002.21
2017-12-16T12:20:31.147Z,1002.16
2017-12-16T12:21:31.724Z,1002.22
2017-12-16T12:22:32.337Z,1002.26
2017-12-16T12:23:32.958Z,1002.25
2017-12-16T12:24:33.545Z,1002.21
2017-12-16T12:25:34.161Z,1002.23
2017-12-16T12:26:34.773Z,1002.30
2017-12-16T12:27:35.379Z,1002.23